Time;durP1;ratioP1;P1;durP2;ratioP2;P2;SDS_P1;SDS_P2;PMS_P1;PMS_P2;Temp;Humidity;BMP_temperature;BMP_pressure;BME280_temperature;BME280_humidity;BME280_pressure;Samples;Min_cycle;Max_cycle;Signal;HPM_P1;HPM_P2
2023/08/12 00:00:55;;;;;;;3.40;2.70;;;;;;;17.61;100.00;99690.77;105828;1251;61346;-73
2023/08/12 00:03:22;;;;;;;4.80;2.40;;;;;;;17.60;100.00;99693.54;105926;1251;74439;-74
2023/08/12 00:05:49;;;;;;;6.80;3.20;;;;;;;17.57;100.00;99691.90;105869;1253;70801;-74
2023/08/12 00:08:16;;;;;;;5.80;3.10;;;;;;;17.52;100.00;99697.00;105793;1251;72669;-74
2023/08/12 00:10:43;;;;;;;3.70;3.30;;;;;;;17.45;100.00;99691.77;105751;1251;61349;-74
2023/08/12 00:13:10;;;;;;;5.80;3.60;;;;;;;17.39;100.00;99695.61;105737;1251;61340;-74
2023/08/12 00:15:37;;;;;;;6.70;3.40;;;;;;;17.36;100.00;99698.65;105748;1256;73162;-75
2023/08/12 00:18:06;;;;;;;4.80;2.80;;;;;;;17.34;100.00;99695.97;105803;1254;69729;-75
2023/08/12 00:20:33;;;;;;;7.70;2.90;;;;;;;17.30;100.00;99697.81;105819;1251;72520;-75
2023/08/12 00:22:59;;;;;;;3.50;3.20;;;;;;;17.23;100.00;99696.23;105759;1251;61379;-74
2023/08/12 00:25:26;;;;;;;4.60;3.30;;;;;;;17.14;100.00;99696.95;105816;1251;61264;-74
2023/08/12 00:27:52;;;;;;;4.80;2.80;;;;;;;17.02;100.00;99691.77;105775;1253;73382;-74
2023/08/12 00:30:19;;;;;;;3.40;2.90;;;;;;;16.92;100.00;99693.83;105801;1255;61292;-74
2023/08/12 00:32:47;;;;;;;3.40;2.60;;;;;;;16.82;100.00;99705.38;105804;1251;72550;-74
2023/08/12 00:35:14;;;;;;;3.80;3.50;;;;;;;16.72;100.00;99700.39;105776;1252;61359;-74
2023/08/12 00:37:41;;;;;;;6.20;3.00;;;;;;;16.65;100.00;99697.60;105763;1255;61356;-74
2023/08/12 00:40:10;;;;;;;3.80;3.10;;;;;;;16.61;100.00;99696.97;105828;1251;74661;-74
2023/08/12 00:42:37;;;;;;;3.10;2.90;;;;;;;16.58;100.00;99698.55;105847;1251;69944;-74
2023/08/12 00:45:09;;;;;;;3.80;2.80;;;;;;;16.55;100.00;99697.13;105759;1250;61346;-74
2023/08/12 00:47:36;;;;;;;4.00;2.60;;;;;;;16.52;100.00;99697.28;105632;1256;61735;-74
2023/08/12 00:50:03;;;;;;;4.80;3.20;;;;;;;16.49;100.00;99699.77;105792;1251;61358;-75
2023/08/12 00:52:30;;;;;;;7.70;3.30;;;;;;;16.46;100.00;99700.45;105849;1251;74627;-74
2023/08/12 00:54:57;;;;;;;7.50;3.30;;;;;;;16.42;100.00;99699.77;105773;1256;70895;-74
2023/08/12 00:57:23;;;;;;;8.80;3.10;;;;;;;16.37;100.00;99701.66;105639;1257;61344;-74
2023/08/12 00:59:50;;;;;;;3.80;2.60;;;;;;;16.33;100.00;99699.23;105789;1255;61261;-74
2023/08/12 01:02:17;;;;;;;3.80;2.80;;;;;;;16.32;100.00;99696.98;105791;1253;61736;-74
2023/08/12 01:04:44;;;;;;;6.50;2.80;;;;;;;16.30;100.00;99699.55;105647;1251;74449;-74
2023/08/12 01:07:11;;;;;;;4.40;3.10;;;;;;;16.26;100.00;99702.42;105642;1251;71208;-74
2023/08/12 01:09:38;;;;;;;2.90;2.70;;;;;;;16.22;100.00;99703.91;105873;1251;72732;-74
2023/08/12 01:12:09;;;;;;;4.10;3.40;;;;;;;16.19;100.00;99704.98;105662;1251;61294;-74
2023/08/12 01:14:51;;;;;;;5.20;2.90;;;;;;;16.16;100.00;99706.70;105819;1255;61318;-75
2023/08/12 01:17:17;;;;;;;4.10;3.20;;;;;;;16.10;100.00;99706.86;105823;1251;74761;-75
2023/08/12 01:19:44;;;;;;;3.70;3.10;;;;;;;16.04;100.00;99710.57;105627;1251;69821;-73
2023/08/12 01:22:12;;;;;;;4.10;3.50;;;;;;;15.97;100.00;99708.96;105757;1251;72471;-73
2023/08/12 01:24:40;;;;;;;4.80;3.10;;;;;;;15.93;100.00;99709.18;105860;1251;61274;-75
2023/08/12 01:27:07;;;;;;;3.60;3.30;;;;;;;15.86;100.00;99714.86;105887;1251;61267;-74
2023/08/12 01:29:35;;;;;;;3.40;3.10;;;;;;;15.77;100.00;99706.13;105851;1251;74731;-73
2023/08/12 01:32:11;;;;;;;3.40;3.10;;;;;;;15.74;100.00;99701.88;105842;1251;70892;-75
2023/08/12 01:34:44;;;;;;;7.50;3.40;;;;;;;15.70;100.00;99701.00;105797;1251;72713;-74
2023/08/12 01:37:17;;;;;;;3.20;2.80;;;;;;;15.66;100.00;99699.13;105625;1251;61301;-76
2023/08/12 01:39:44;;;;;;;4.10;3.30;;;;;;;15.60;100.00;99701.87;105725;1251;61356;-75
2023/08/12 01:42:11;;;;;;;4.80;3.60;;;;;;;15.53;100.00;99698.34;105821;1251;74627;-73
2023/08/12 01:44:38;;;;;;;4.60;3.00;;;;;;;15.48;100.00;99704.98;105791;1251;71079;-74
2023/08/12 01:47:05;;;;;;;4.90;3.40;;;;;;;15.43;100.00;99699.77;105865;1251;72384;-74
2023/08/12 01:49:32;;;;;;;5.90;3.30;;;;;;;15.39;100.00;99701.20;105891;1251;62094;-74
2023/08/12 01:51:59;;;;;;;8.50;3.30;;;;;;;15.36;100.00;99699.04;105777;1256;61153;-74
2023/08/12 01:54:25;;;;;;;4.10;3.70;;;;;;;15.34;100.00;99694.94;105819;1253;74490;-74
2023/08/12 01:56:52;;;;;;;4.40;3.80;;;;;;;15.32;100.00;99693.27;105847;1251;71266;-74
2023/08/12 01:59:19;;;;;;;5.50;3.70;;;;;;;15.31;100.00;99694.03;105808;1251;72619;-74
2023/08/12 02:01:45;;;;;;;3.90;3.50;;;;;;;15.29;100.00;99699.39;105776;1256;61349;-76
2023/08/12 02:04:12;;;;;;;4.20;3.50;;;;;;;15.29;100.00;99702.25;105780;1251;61368;-75
2023/08/12 02:06:39;;;;;;;3.70;3.40;;;;;;;15.27;100.00;99697.95;105667;1258;74533;-74
2023/08/12 02:09:06;;;;;;;5.90;3.50;;;;;;;15.23;100.00;99701.80;105676;1251;70913;-74
2023/08/12 02:11:32;;;;;;;4.70;3.60;;;;;;;15.19;100.00;99701.83;105753;1256;72429;-74
2023/08/12 02:13:59;;;;;;;4.00;3.40;;;;;;;15.15;100.00;99702.05;105803;1251;61319;-75
2023/08/12 02:16:26;;;;;;;5.90;3.60;;;;;;;15.11;100.00;99705.63;105682;1251;61177;-74
2023/08/12 02:18:52;;;;;;;3.90;3.40;;;;;;;15.06;100.00;99708.00;105830;1256;73862;-74
2023/08/12 02:21:19;;;;;;;4.40;3.70;;;;;;;15.02;100.00;99710.66;105788;1251;69528;-74
2023/08/12 02:23:45;;;;;;;3.80;3.40;;;;;;;14.99;100.00;99711.00;105799;1251;72651;-75
2023/08/12 02:26:12;;;;;;;7.40;4.00;;;;;;;14.95;100.00;99710.33;105774;1251;61308;-74
2023/08/12 02:28:39;;;;;;;4.30;3.90;;;;;;;14.91;100.00;99711.20;105817;1251;61234;-74
2023/08/12 02:31:06;;;;;;;6.30;3.90;;;;;;;14.89;100.00;99712.03;105933;1256;74364;-74
2023/08/12 02:33:32;;;;;;;7.30;3.60;;;;;;;14.84;100.00;99715.59;105741;1251;71069;-74
2023/08/12 02:35:59;;;;;;;5.10;3.90;;;;;;;14.81;100.00;99716.48;105790;1251;72519;-74
2023/08/12 02:38:26;;;;;;;3.80;3.50;;;;;;;14.78;100.00;99716.95;105645;1251;61804;-74
2023/08/12 02:40:53;;;;;;;6.40;4.10;;;;;;;14.76;100.00;99717.42;105810;1251;61170;-74
2023/08/12 02:43:20;;;;;;;5.20;3.80;;;;;;;14.75;100.00;99718.32;105799;1251;73467;-75
2023/08/12 02:45:47;;;;;;;7.20;4.10;;;;;;;14.76;100.00;99720.58;105791;1251;71075;-75
2023/08/12 02:48:14;;;;;;;7.90;4.10;;;;;;;14.76;100.00;99728.02;105778;1251;73096;-75
2023/08/12 02:50:40;;;;;;;7.80;4.10;;;;;;;14.73;100.00;99726.77;105790;1255;61810;-75
2023/08/12 02:53:08;;;;;;;5.00;4.50;;;;;;;14.69;100.00;99724.98;105828;1251;61363;-75
2023/08/12 02:55:34;;;;;;;6.60;4.10;;;;;;;14.66;100.00;99727.23;105875;1255;73625;-74
2023/08/12 02:58:01;;;;;;;7.50;4.50;;;;;;;14.64;100.00;99730.70;105674;1257;69749;-74
2023/08/12 03:00:28;;;;;;;5.30;4.50;;;;;;;14.61;100.00;99733.67;105766;1251;72648;-74
2023/08/12 03:02:55;;;;;;;4.50;4.00;;;;;;;14.59;100.00;99736.40;105775;1254;61347;-74
2023/08/12 03:05:22;;;;;;;6.00;4.10;;;;;;;14.57;100.00;99734.52;105829;1251;61265;-75
2023/08/12 03:07:51;;;;;;;6.20;4.20;;;;;;;14.57;100.00;99736.13;105780;1251;74756;-74
2023/08/12 03:10:18;;;;;;;9.40;4.90;;;;;;;14.56;100.00;99736.89;105845;1252;69882;-74
2023/08/12 03:12:45;;;;;;;8.70;4.60;;;;;;;14.54;100.00;99738.91;105791;1251;72479;-74
2023/08/12 03:15:12;;;;;;;8.70;3.90;;;;;;;14.53;100.00;99737.05;105651;1257;61366;-74
2023/08/12 03:17:39;;;;;;;5.20;4.70;;;;;;;14.52;100.00;99736.90;105664;1257;61195;-75
2023/08/12 03:20:08;;;;;;;4.90;4.50;;;;;;;14.53;100.00;99731.92;105792;1251;74674;-74
2023/08/12 03:22:37;;;;;;;6.70;4.80;;;;;;;14.53;100.00;99737.58;105768;1257;70310;-77
2023/08/12 03:25:04;;;;;;;6.10;4.70;;;;;;;14.51;100.00;99738.17;105731;1253;72652;-74
2023/08/12 03:27:32;;;;;;;4.90;4.40;;;;;;;14.49;100.00;99741.27;105861;1251;61782;-72
2023/08/12 03:29:59;;;;;;;4.90;4.50;;;;;;;14.46;100.00;99745.79;105694;1254;61288;-74
2023/08/12 03:32:26;;;;;;;6.90;4.70;;;;;;;14.46;100.00;99745.08;105667;1251;74614;-74
2023/08/12 03:34:53;;;;;;;5.50;4.40;;;;;;;14.48;100.00;99743.77;105773;1251;70993;-74
2023/08/12 03:37:20;;;;;;;7.90;4.50;;;;;;;14.51;100.00;99747.87;105808;1251;72485;-75
2023/08/12 03:39:47;;;;;;;5.30;4.20;;;;;;;14.53;100.00;99744.26;105894;1253;61672;-76
2023/08/12 03:42:16;;;;;;;5.90;4.20;;;;;;;14.55;100.00;99752.98;105734;1256;61262;-73
2023/08/12 03:44:44;;;;;;;7.20;4.80;;;;;;;14.56;100.00;99753.45;105825;1251;73647;-75
2023/08/12 03:47:11;;;;;;;5.30;4.40;;;;;;;14.59;100.00;99751.76;105748;1251;70805;-75
2023/08/12 03:49:38;;;;;;;7.20;4.40;;;;;;;14.62;100.00;99751.48;105670;1253;72567;-74
2023/08/12 03:52:06;;;;;;;12.10;5.10;;;;;;;14.65;100.00;99754.83;105686;1256;61356;-74
2023/08/12 03:54:34;;;;;;;5.80;5.20;;;;;;;14.69;100.00;99756.78;105873;1254;61174;-73
2023/08/12 03:57:01;;;;;;;7.40;4.90;;;;;;;14.72;100.00;99759.29;105831;1251;74676;-74
2023/08/12 03:59:28;;;;;;;7.10;5.50;;;;;;;14.73;100.00;99752.87;105918;1251;70833;-74
2023/08/12 04:01:57;;;;;;;5.50;4.80;;;;;;;14.75;100.00;99752.95;105824;1251;72455;-74
2023/08/12 04:04:23;;;;;;;5.40;4.90;;;;;;;14.77;100.00;99752.50;105798;1253;61755;-74
2023/08/12 04:06:51;;;;;;;6.50;5.20;;;;;;;14.79;100.00;99754.35;105761;1254;61263;-74
2023/08/12 04:09:19;;;;;;;6.20;5.60;;;;;;;14.82;100.00;99754.73;105713;1251;74715;-74
2023/08/12 04:11:46;;;;;;;6.60;5.10;;;;;;;14.84;100.00;99749.65;105807;1253;70983;-74
2023/08/12 04:14:13;;;;;;;5.20;4.60;;;;;;;14.89;100.00;99750.02;105808;1251;72435;-74
2023/08/12 04:16:42;;;;;;;5.30;4.90;;;;;;;14.93;100.00;99748.38;105863;1251;62584;-73
2023/08/12 04:19:09;;;;;;;7.80;4.80;;;;;;;14.97;100.00;99751.70;105680;1256;61312;-74
2023/08/12 04:21:35;;;;;;;5.90;5.00;;;;;;;15.02;100.00;99749.36;105808;1251;74655;-72
2023/08/12 04:24:03;;;;;;;7.80;4.70;;;;;;;15.06;100.00;99751.25;105662;1251;69935;-75
2023/08/12 04:26:31;;;;;;;6.90;4.90;;;;;;;15.10;100.00;99747.17;105839;1253;72473;-74
2023/08/12 04:28:59;;;;;;;11.20;5.40;;;;;;;15.16;100.00;99747.94;105868;1251;61969;-74
2023/08/12 04:31:26;;;;;;;5.30;4.80;;;;;;;15.22;100.00;99740.77;105749;1251;61263;-74
2023/08/12 04:33:53;;;;;;;7.30;4.40;;;;;;;15.28;100.00;99737.84;105790;1254;73386;-74
2023/08/12 04:36:20;;;;;;;9.30;5.10;;;;;;;15.33;100.00;99744.48;105819;1253;70993;-74
2023/08/12 04:38:48;;;;;;;5.50;4.70;;;;;;;15.39;100.00;99740.80;105835;1251;72424;-75
2023/08/12 04:41:14;;;;;;;7.70;4.90;;;;;;;15.47;100.00;99738.27;105750;1251;61751;-74
2023/08/12 04:43:41;;;;;;;5.00;4.60;;;;;;;15.55;100.00;99738.02;105815;1251;61231;-74
2023/08/12 04:46:08;;;;;;;11.30;4.80;;;;;;;15.66;100.00;99729.17;105831;1256;74510;-74
2023/08/12 04:48:36;;;;;;;6.30;4.80;;;;;;;15.77;100.00;99733.73;105753;1251;71169;-74
2023/08/12 04:51:02;;;;;;;5.90;5.30;;;;;;;15.88;100.00;99733.67;105672;1253;72304;-73
2023/08/12 04:53:29;;;;;;;7.90;5.70;;;;;;;15.99;100.00;99730.81;105742;1254;61814;-73
2023/08/12 04:55:56;;;;;;;8.30;5.40;;;;;;;16.08;100.00;99729.30;105784;1251;61260;-75
2023/08/12 04:58:23;;;;;;;6.90;4.80;;;;;;;16.14;100.00;99726.27;105792;1253;73044;-74
2023/08/12 05:00:51;;;;;;;12.00;5.00;;;;;;;16.22;100.00;99726.02;105668;1251;70908;-75
2023/08/12 05:03:19;;;;;;;8.50;5.40;;;;;;;16.30;100.00;99726.80;105704;1253;72411;-75
2023/08/12 05:05:51;;;;;;;6.50;4.90;;;;;;;16.38;100.00;99729.95;105823;1253;61813;-74
2023/08/12 05:08:18;;;;;;;7.90;4.90;;;;;;;16.46;100.00;99724.03;105838;1256;61205;-74
2023/08/12 05:10:48;;;;;;;12.40;4.80;;;;;;;16.55;100.00;99723.52;105845;1251;74642;-75
2023/08/12 05:13:15;;;;;;;10.00;5.60;;;;;;;16.65;100.00;99719.05;105823;1255;69566;-74
2023/08/12 05:15:46;;;;;;;6.20;4.80;;;;;;;16.75;100.00;99719.38;105771;1251;72409;-74
2023/08/12 05:18:13;;;;;;;7.80;4.70;;;;;;;16.87;100.00;99719.98;105693;1253;61690;-74
2023/08/12 05:20:41;;;;;;;6.70;4.20;;;;;;;16.95;100.00;99709.05;105803;1256;61282;-76
2023/08/12 05:23:12;;;;;;;5.10;4.10;;;;;;;17.01;100.00;99707.09;105884;1256;74936;-74
2023/08/12 05:25:39;;;;;;;8.50;4.20;;;;;;;17.05;100.00;99699.97;105664;1251;69797;-74
2023/08/12 05:28:07;;;;;;;8.10;5.90;;;;;;;17.07;100.00;99698.04;105833;1251;72672;-74
2023/08/12 05:30:34;;;;;;;20.60;5.80;;;;;;;17.09;100.00;99701.10;105857;1251;62084;-75
2023/08/12 05:33:02;;;;;;;9.20;4.70;;;;;;;17.08;100.00;99703.11;105834;1251;61238;-74
2023/08/12 05:35:33;;;;;;;8.90;4.70;;;;;;;17.09;100.00;99704.48;105923;1254;73538;-74
2023/08/12 05:37:59;;;;;;;8.90;4.20;;;;;;;17.11;100.00;99707.23;105811;1251;70915;-74
2023/08/12 05:40:27;;;;;;;7.90;4.60;;;;;;;17.16;100.00;99709.97;105854;1253;72640;-75
2023/08/12 05:42:53;;;;;;;9.10;4.00;;;;;;;17.20;100.00;99712.02;105802;1251;61839;-74
2023/08/12 05:45:20;;;;;;;5.60;4.50;;;;;;;17.23;100.00;99708.81;105832;1253;61346;-74
2023/08/12 05:47:47;;;;;;;6.40;4.10;;;;;;;17.26;100.00;99706.73;105825;1256;74475;-75
2023/08/12 05:50:14;;;;;;;10.60;4.50;;;;;;;17.30;100.00;99708.80;105786;1255;71028;-74
2023/08/12 05:52:40;;;;;;;14.30;4.50;;;;;;;17.34;100.00;99712.80;105757;1251;61381;-74
2023/08/12 05:55:07;;;;;;;9.70;4.20;;;;;;;17.37;100.00;99710.50;105755;1252;61427;-74
2023/08/12 05:57:34;;;;;;;7.00;5.10;;;;;;;17.38;100.00;99711.16;105812;1251;61448;-74
2023/08/12 06:00:01;;;;;;;12.50;4.50;;;;;;;17.40;100.00;99713.49;105800;1253;74438;-74
2023/08/12 06:02:38;;;;;;;5.10;3.90;;;;;;;17.46;100.00;99721.11;105843;1256;69931;-73
2023/08/12 06:05:06;;;;;;;7.00;4.20;;;;;;;17.53;100.00;99726.38;105874;1253;72547;-74
2023/08/12 06:07:32;;;;;;;7.60;5.60;;;;;;;17.57;100.00;99724.21;105890;1255;61267;-74
2023/08/12 06:10:00;;;;;;;5.10;4.60;;;;;;;17.58;100.00;99717.02;105821;1251;61462;-75
2023/08/12 06:12:27;;;;;;;17.70;6.60;;;;;;;17.57;100.00;99714.42;105842;1251;74424;-74
2023/08/12 06:14:53;;;;;;;26.40;5.20;;;;;;;17.56;100.00;99712.21;105841;1256;71056;-74
2023/08/12 06:17:20;;;;;;;9.30;4.50;;;;;;;17.51;100.00;99714.81;105813;1255;71233;-75
2023/08/12 06:19:47;;;;;;;11.10;5.10;;;;;;;17.46;100.00;99718.80;105801;1251;61381;-74
2023/08/12 06:22:14;;;;;;;9.70;4.70;;;;;;;17.40;100.00;99713.47;105803;1254;61244;-74
2023/08/12 06:24:41;;;;;;;5.70;4.10;;;;;;;17.35;100.00;99707.59;105797;1253;73464;-75
2023/08/12 06:27:08;;;;;;;7.50;4.30;;;;;;;17.34;100.00;99708.55;105796;1253;71073;-74
2023/08/12 06:29:34;;;;;;;15.80;4.80;;;;;;;17.36;100.00;99707.38;105837;1250;72843;-75
2023/08/12 06:32:01;;;;;;;8.70;4.50;;;;;;;17.38;100.00;99703.16;105790;1255;61324;-74
2023/08/12 06:34:28;;;;;;;7.60;4.30;;;;;;;17.40;100.00;99706.91;105770;1253;61261;-74
2023/08/12 06:36:55;;;;;;;8.30;4.10;;;;;;;17.42;100.00;99709.85;105838;1256;74465;-74
2023/08/12 06:39:21;;;;;;;5.00;4.50;;;;;;;17.43;100.00;99712.05;105945;1256;70921;-75
2023/08/12 06:41:48;;;;;;;6.20;4.10;;;;;;;17.47;100.00;99708.49;105806;1251;72473;-76
2023/08/12 06:44:16;;;;;;;6.10;4.50;;;;;;;17.55;100.00;99707.50;105820;1253;61186;-75
2023/08/12 06:46:43;;;;;;;6.20;4.10;;;;;;;17.67;100.00;99706.20;105787;1255;61208;-75
2023/08/12 06:49:10;;;;;;;7.60;3.80;;;;;;;17.84;100.00;99704.09;105781;1253;74664;-76
2023/08/12 06:51:37;;;;;;;6.40;4.30;;;;;;;18.02;100.00;99697.55;105915;1251;71075;-75
2023/08/12 06:54:04;;;;;;;7.90;4.40;;;;;;;18.16;100.00;99698.59;105873;1256;72475;-75
2023/08/12 06:56:31;;;;;;;6.40;3.90;;;;;;;18.35;100.00;99694.06;105842;1251;61643;-74
2023/08/12 06:58:58;;;;;;;8.70;4.00;;;;;;;18.55;100.00;99689.89;105780;1251;61241;-75
2023/08/12 07:01:24;;;;;;;5.80;3.90;;;;;;;18.70;100.00;99691.63;105853;1253;61385;-75
2023/08/12 07:03:51;;;;;;;4.40;3.80;;;;;;;18.81;100.00;99687.52;105849;1255;70883;-75
2023/08/12 07:06:23;;;;;;;4.30;3.90;;;;;;;18.89;100.00;99683.59;105775;1254;72658;-75
2023/08/12 07:08:49;;;;;;;4.70;3.70;;;;;;;18.97;100.00;99679.02;105801;1251;61708;-74
2023/08/12 07:11:16;;;;;;;10.60;4.00;;;;;;;18.98;100.00;99678.45;105720;1257;61241;-75
2023/08/12 07:13:46;;;;;;;4.90;4.00;;;;;;;18.98;100.00;99676.30;105992;1252;74374;-75
2023/08/12 07:16:13;;;;;;;4.10;3.60;;;;;;;19.05;100.00;99679.90;105822;1254;71037;-74
2023/08/12 07:18:39;;;;;;;9.30;4.40;;;;;;;19.16;100.00;99678.60;105811;1255;70948;-74
2023/08/12 07:21:06;;;;;;;6.70;3.60;;;;;;;19.24;100.00;99674.00;105800;1252;61266;-75
2023/08/12 07:23:33;;;;;;;6.00;3.50;;;;;;;19.26;100.00;99675.58;105797;1256;61261;-74
2023/08/12 07:26:00;;;;;;;12.00;3.50;;;;;;;19.26;100.00;99675.40;105810;1256;74756;-75
2023/08/12 07:28:27;;;;;;;8.50;3.60;;;;;;;19.27;100.00;99676.41;105829;1253;70789;-74
2023/08/12 07:30:53;;;;;;;5.70;3.30;;;;;;;19.32;100.00;99679.85;105844;1253;71745;-74
2023/08/12 07:33:21;;;;;;;5.10;3.50;;;;;;;19.38;100.00;99684.45;105817;1250;61662;-75
2023/08/12 07:35:48;;;;;;;4.10;3.50;;;;;;;19.42;100.00;99685.25;105840;1253;61376;-74
2023/08/12 07:38:14;;;;;;;4.50;3.30;;;;;;;19.45;100.00;99681.95;105836;1254;74747;-74
2023/08/12 07:40:41;;;;;;;4.50;3.10;;;;;;;19.48;100.00;99679.80;105824;1256;61371;-74
2023/08/12 07:43:08;;;;;;;4.50;3.30;;;;;;;19.54;100.00;99679.95;105739;1253;71459;-76
2023/08/12 07:45:35;;;;;;;5.90;3.40;;;;;;;19.64;100.00;99674.98;105816;1256;61391;-75
2023/08/12 07:48:01;;;;;;;5.70;3.40;;;;;;;19.78;100.00;99675.64;105833;1256;61353;-74
2023/08/12 07:50:29;;;;;;;8.40;2.90;;;;;;;19.93;100.00;99669.95;105855;1253;74613;-75
2023/08/12 07:52:56;;;;;;;13.30;3.10;;;;;;;20.09;100.00;99667.23;105764;1253;70872;-74
2023/08/12 07:55:22;;;;;;;7.20;3.40;;;;;;;20.28;100.00;99662.44;105767;1253;61379;-74
2023/08/12 07:57:53;;;;;;;9.30;3.00;;;;;;;20.56;100.00;99655.95;105751;1252;61775;-74
2023/08/12 08:00:20;;;;;;;10.80;3.30;;;;;;;20.84;100.00;99653.40;105910;1256;61369;-75
2023/08/12 08:02:47;;;;;;;19.70;3.20;;;;;;;21.09;100.00;99645.77;105838;1256;74373;-74
2023/08/12 08:05:14;;;;;;;5.40;3.10;;;;;;;21.30;100.00;99641.66;105799;1253;70916;-75
2023/08/12 08:07:41;;;;;;;5.90;3.00;;;;;;;21.50;100.00;99645.92;105837;1251;72553;-75
2023/08/12 08:10:08;;;;;;;6.80;3.10;;;;;;;21.69;100.00;99641.59;105765;1252;61298;-75
2023/08/12 08:12:35;;;;;;;3.00;2.60;;;;;;;21.87;100.00;99640.30;105845;1251;61337;-75
2023/08/12 08:15:03;;;;;;;3.80;2.90;;;;;;;22.03;100.00;99634.39;105832;1251;74345;-75
2023/08/12 08:17:30;;;;;;;6.80;2.60;;;;;;;22.12;100.00;99630.50;105884;1253;70888;-74
2023/08/12 08:19:57;;;;;;;4.60;2.80;;;;;;;22.12;100.00;99627.98;105790;1253;72543;-74
2023/08/12 08:22:24;;;;;;;7.10;2.80;;;;;;;22.06;100.00;99626.84;105854;1251;61247;-75
2023/08/12 08:24:51;;;;;;;10.70;2.90;;;;;;;22.01;100.00;99621.88;105833;1255;61214;-74
2023/08/12 08:27:17;;;;;;;6.50;2.50;;;;;;;21.97;100.00;99625.58;105806;1253;73092;-74
2023/08/12 08:29:44;;;;;;;6.40;2.70;;;;;;;21.97;100.00;99626.36;105798;1253;70849;-74
2023/08/12 08:32:10;;;;;;;6.00;2.70;;;;;;;21.97;100.00;99623.98;105820;1254;72656;-74
2023/08/12 08:34:37;;;;;;;7.10;2.80;;;;;;;21.97;100.00;99625.27;105783;1254;61337;-75
2023/08/12 08:37:04;;;;;;;6.50;3.00;;;;;;;21.92;100.00;99621.90;105833;1251;61246;-74
2023/08/12 08:39:32;;;;;;;9.00;3.10;;;;;;;21.82;100.00;99626.20;105897;1255;73543;-74
2023/08/12 08:41:59;;;;;;;3.40;2.40;;;;;;;21.76;100.00;99624.73;105831;1253;70942;-74
2023/08/12 08:44:28;;;;;;;7.30;3.00;;;;;;;21.67;100.00;99627.95;105663;1253;72484;-74
2023/08/12 08:46:55;;;;;;;13.70;3.00;;;;;;;21.61;100.00;99631.48;105850;1255;61337;-74
2023/08/12 08:49:22;;;;;;;5.10;2.70;;;;;;;21.52;100.00;99625.91;105742;1253;61294;-75
2023/08/12 08:51:48;;;;;;;5.90;2.60;;;;;;;21.46;100.00;99629.09;105581;1254;61390;-74
2023/08/12 08:54:15;;;;;;;8.00;3.00;;;;;;;21.41;100.00;99628.71;105713;1253;70895;-74
2023/08/12 08:56:42;;;;;;;6.80;2.80;;;;;;;21.42;100.00;99629.92;105697;1251;72464;-74
2023/08/12 08:59:21;;;;;;;6.60;2.40;;;;;;;21.45;100.00;99637.15;105683;1253;61246;-75
2023/08/12 09:01:50;;;;;;;9.70;2.80;;;;;;;21.47;100.00;99630.95;105713;1259;61158;-73
2023/08/12 09:04:17;;;;;;;6.20;2.70;;;;;;;21.49;100.00;99635.41;105882;1256;74865;-75
2023/08/12 09:06:44;;;;;;;7.50;2.80;;;;;;;21.50;100.00;99633.70;105676;1252;71391;-75
2023/08/12 09:09:12;;;;;;;8.20;2.40;;;;;;;21.47;100.00;99637.84;105701;1257;72612;-74
2023/08/12 09:11:40;;;;;;;4.60;2.70;;;;;;;21.48;100.00;99636.95;105888;1251;61356;-74
2023/08/12 09:14:07;;;;;;;7.40;3.00;;;;;;;21.59;100.00;99637.17;105873;1256;61288;-74
2023/08/12 09:16:35;;;;;;;8.60;2.80;;;;;;;21.75;100.00;99633.77;105893;1254;74494;-75
2023/08/12 09:19:02;;;;;;;4.30;2.40;;;;;;;21.94;100.00;99636.05;105807;1256;70872;-75
2023/08/12 09:21:30;;;;;;;17.50;3.40;;;;;;;22.08;100.00;99628.44;105774;1254;72622;-75
2023/08/12 09:23:57;;;;;;;2.90;2.30;;;;;;;22.22;100.00;99624.98;105879;1253;61397;-74
2023/08/12 09:26:24;;;;;;;3.10;2.40;;;;;;;22.36;100.00;99613.35;105728;1253;61356;-74
2023/08/12 09:28:51;;;;;;;5.70;2.60;;;;;;;22.49;100.00;99616.52;105819;1253;74824;-73
2023/08/12 09:31:28;;;;;;;4.10;3.20;;;;;;;22.60;100.00;99611.17;105809;1253;71127;-74
2023/08/12 09:33:59;;;;;;;4.80;2.60;;;;;;;22.62;100.00;99611.67;105896;1251;72762;-75
2023/08/12 09:36:30;;;;;;;4.60;3.20;;;;;;;22.67;100.00;99609.77;105843;1251;61292;-75
2023/08/12 09:38:58;;;;;;;7.20;3.20;;;;;;;22.78;100.00;99613.44;105861;1253;61250;-75
2023/08/12 09:41:26;;;;;;;7.20;2.60;;;;;;;22.93;100.00;99615.22;105873;1253;74598;-75
2023/08/12 09:43:53;;;;;;;5.40;2.20;;;;;;;23.08;100.00;99611.33;105898;1256;71030;-74
2023/08/12 09:46:21;;;;;;;5.20;2.20;;;;;;;23.25;100.00;99598.35;105804;1256;71452;-74
2023/08/12 09:48:50;;;;;;;6.30;2.20;;;;;;;23.47;100.00;99598.88;105835;1251;61368;-74
2023/08/12 09:51:17;;;;;;;4.50;2.00;;;;;;;23.63;100.00;99594.41;105894;1254;61357;-75
2023/08/12 09:53:43;;;;;;;4.20;2.80;;;;;;;23.78;100.00;99595.09;105812;1251;74696;-74
2023/08/12 09:56:11;;;;;;;8.70;2.90;;;;;;;23.84;100.00;99595.98;105837;1256;70892;-75
2023/08/12 09:58:38;;;;;;;7.70;2.50;;;;;;;23.86;100.00;99595.98;105788;1251;70853;-74
2023/08/12 10:01:05;;;;;;;8.20;2.40;;;;;;;23.90;100.00;99590.95;105718;1253;61321;-75
2023/08/12 10:03:32;;;;;;;7.60;1.90;;;;;;;23.94;100.00;99590.05;105748;1258;61237;-75
2023/08/12 10:05:59;;;;;;;4.50;2.10;;;;;;;23.92;100.00;99588.77;105800;1253;72722;-74
2023/08/12 10:08:27;;;;;;;6.90;2.00;;;;;;;23.89;100.00;99593.35;105819;1254;71110;-74
2023/08/12 10:10:54;;;;;;;6.90;2.50;;;;;;;23.91;100.00;99596.84;105802;1256;72369;-74
2023/08/12 10:13:42;;;;;;;5.00;2.30;;;;;;;24.01;100.00;99595.89;105961;1256;61154;-74
2023/08/12 10:16:09;;;;;;;7.60;2.30;;;;;;;24.10;100.00;99592.98;105823;1256;61162;-75
2023/08/12 10:18:38;;;;;;;4.00;2.20;;;;;;;24.16;100.00;99593.91;105839;1255;74709;-75
2023/08/12 10:21:05;;;;;;;2.30;2.10;;;;;;;24.15;100.00;99593.60;105816;1254;70847;-73
2023/08/12 10:23:32;;;;;;;3.80;1.90;;;;;;;24.14;100.00;99600.53;105838;1253;70612;-74
2023/08/12 10:25:58;;;;;;;7.90;2.20;;;;;;;24.14;100.00;99600.67;105799;1253;61367;-74
2023/08/12 10:28:25;;;;;;;11.20;2.40;;;;;;;24.15;100.00;99601.87;105654;1253;61349;-74
2023/08/12 10:30:52;;;;;;;5.70;2.10;;;;;;;24.15;100.00;99593.95;105811;1256;74751;-74
2023/08/12 10:33:19;;;;;;;8.80;2.10;;;;;;;24.13;100.00;99599.33;105821;1255;69765;-76
2023/08/12 10:35:47;;;;;;;7.00;2.10;;;;;;;24.07;100.00;99595.89;105798;1251;72856;-74
2023/08/12 10:38:16;;;;;;;7.20;2.90;;;;;;;24.03;100.00;99592.34;105777;1254;61268;-74
2023/08/12 10:40:43;;;;;;;10.30;2.60;;;;;;;24.03;100.00;99595.39;105925;1254;61359;-73
2023/08/12 10:43:11;;;;;;;4.30;2.10;;;;;;;24.09;100.00;99599.98;105707;1251;74483;-73
2023/08/12 10:45:49;;;;;;;2.80;1.90;;;;;;;24.15;100.00;99597.23;105782;1253;70033;-75
2023/08/12 10:48:17;;;;;;;3.80;2.00;;;;;;;24.18;100.00;99597.24;105912;1252;72411;-74
2023/08/12 10:50:46;;;;;;;4.30;2.20;;;;;;;24.25;100.00;99594.63;105829;1251;61562;-73
2023/08/12 10:53:32;;;;;;;10.40;2.40;;;;;;;24.30;100.00;99591.90;105831;1256;61196;-75
2023/08/12 10:56:01;;;;;;;6.50;2.50;;;;;;;24.27;100.00;99591.77;105876;1254;74526;-75
2023/08/12 10:58:37;;;;;;;12.30;2.80;;;;;;;24.25;100.00;99586.98;105884;1255;68686;-74
2023/08/12 11:01:04;;;;;;;11.30;2.50;;;;;;;24.24;100.00;99593.98;105814;1256;71214;-74
2023/08/12 11:03:33;;;;;;;3.90;2.20;;;;;;;24.25;100.00;99593.06;105514;1253;61356;-75
2023/08/12 11:06:04;;;;;;;10.40;2.80;;;;;;;24.21;100.00;99596.48;105850;1263;61122;-74
2023/08/12 11:08:31;;;;;;;8.50;2.20;;;;;;;24.17;100.00;99604.77;105819;1256;74695;-74
2023/08/12 11:10:58;;;;;;;2.90;2.10;;;;;;;24.16;100.00;99601.79;105750;1251;72047;-74
2023/08/12 11:13:27;;;;;;;4.50;2.00;;;;;;;24.20;100.00;99605.36;105162;1258;623239;-75
2023/08/12 11:16:05;;;;;;;4.40;2.20;;;;;;;24.22;100.00;99599.73;105914;1255;61824;-75
2023/08/12 11:18:32;;;;;;;6.80;2.10;;;;;;;24.26;100.00;99602.46;105819;1251;61363;-74